ROMMA est une association bénévole à but non lucratif. Votre soutien est indispensable : ADHERER à ROMMA ou FAIRE un DON

Granges-lès-Beaumont - (26, Drôme)

Drôme des Collines (155 m)   Longitude: 04°58'E   Latitude: 45°03'N Station partenaire n°123
 

Détail journalier du     <<     >>

Température Precipitation Humidité Pression Vent Dir Rafale Dir. rafale Ensol.
Heure (°C) (mm) (%) (hPa) (km/h) (km/h) (min)
01:00 11.907610175NNO8NNO0
02:00 10.407910175NNO10NNO0
03:00 9.708010176NNO11NNO0
04:00 8.808110173ONO8ONO0
05:00 8.408310171NNO6NNO0
06:00 8.108310173NNO8NNO0
07:00 8.108510171NNE6NNE0
08:00 10.0085101700---0
09:00 12.907510171---6N0
10:00 18.105610179NNO18NNE20
11:00 20.805010179NNE19N60
12:00 22.5045101711NNE23NNE60
13:00 23.103910169NNO21NE60
14:00 24.104010158N19NNO60
15:00 25.203410157N18O60
16:00 25.602910146N16ENE60
17:00 26.703710148NE18NO60
18:00 26.202910138N19NNE60
19:00 24.1036101311NE19NE60
20:00 22.703910137NNE15N30
21:00 19.605210146NO11NNO0
22:00 16.306110149NNO13NNO0
23:00 15.306510145N13NNO0
minuit 14.606710145NNO10N0

Graphique du 23-05-2019

 

Serveur OMMA